Time;durP1;ratioP1;P1;durP2;ratioP2;P2;SDS_P1;SDS_P2;PMS_P1;PMS_P2;Temp;Humidity;BMP_temperature;BMP_pressure;BME280_temperature;BME280_humidity;BME280_pressure;Samples;Min_cycle;Max_cycle;Signal;HPM_P1;HPM_P2
2021/12/26 00:01:18;;;;;;;;;;;;;;;-2.33;100.00;99913.91;5596343;31;34358;-81
2021/12/26 00:04:24;;;;;;;;;;;;;;;-2.40;100.00;99916.84;5597163;31;33635;-81
2021/12/26 00:07:26;;;;;;;;;;;;;;;-2.37;100.00;99917.56;5598161;31;33415;-81
2021/12/26 00:10:32;;;;;;;;;;;;;;;-2.28;100.00;99918.06;5597604;31;33755;-81
2021/12/26 00:13:35;;;;;;;;;;;;;;;-2.43;100.00;99911.81;5597235;31;33779;-81
2021/12/26 00:16:37;;;;;;;;;;;;;;;-2.54;100.00;99905.34;5598452;31;33627;-81
2021/12/26 00:19:40;;;;;;;;;;;;;;;-2.54;100.00;99909.69;5598221;31;33903;-81
2021/12/26 00:22:43;;;;;;;;;;;;;;;-2.55;100.00;99908.84;5598295;31;34310;-81
2021/12/26 00:25:50;;;;;;;;;;;;;;;-2.52;100.00;99906.09;5596859;31;33459;-81
2021/12/26 00:28:55;;;;;;;;;;;;;;;-2.53;100.00;99906.19;5596828;31;33660;-81
2021/12/26 00:31:58;;;;;;;;;;;;;;;-2.42;100.00;99906.56;5597850;31;33238;-81
2021/12/26 00:35:01;;;;;;;;;;;;;;;-2.42;100.00;99908.31;5597801;31;33618;-82
2021/12/26 00:38:03;;;;;;;;;;;;;;;-2.58;100.00;99919.34;5597725;31;34453;-82
2021/12/26 00:41:06;;;;;;;;;;;;;;;-2.55;100.00;99914.03;5600439;31;33272;-81
2021/12/26 00:44:08;;;;;;;;;;;;;;;-2.41;100.00;99915.16;5598416;31;33936;-81
2021/12/26 00:47:13;;;;;;;;;;;;;;;-2.36;100.00;99913.22;5596444;31;33660;-81
2021/12/26 00:50:18;;;;;;;;;;;;;;;-2.42;100.00;99913.50;5599133;31;33911;-81
2021/12/26 00:53:22;;;;;;;;;;;;;;;-2.25;100.00;99921.34;5597084;31;33728;-81
2021/12/26 00:56:25;;;;;;;;;;;;;;;-2.22;100.00;99921.22;5595861;31;33314;-81
2021/12/26 00:59:29;;;;;;;;;;;;;;;-2.24;100.00;99917.84;5597089;31;33598;-81
2021/12/26 01:02:33;;;;;;;;;;;;;;;-2.25;100.00;99916.16;5596740;31;35380;-81
2021/12/26 01:05:37;;;;;;;;;;;;;;;-2.41;100.00;99920.34;5597202;31;34027;-81
2021/12/26 01:08:42;;;;;;;;;;;;;;;-2.52;100.00;99924.25;5595801;31;33755;-81
2021/12/26 01:11:50;;;;;;;;;;;;;;;-2.49;100.00;99918.94;5597234;31;32450;-81
2021/12/26 01:14:59;;;;;;;;;;;;;;;-2.33;100.00;99923.44;5596493;31;33204;-81
2021/12/26 01:18:02;;;;;;;;;;;;;;;-2.35;100.00;99925.25;5595309;31;34013;-81
2021/12/26 01:21:18;;;;;;;;;;;;;;;-2.31;100.00;99929.41;5597055;31;33703;-81
2021/12/26 01:24:21;;;;;;;;;;;;;;;-2.32;100.00;99935.50;5596238;31;33535;-81
2021/12/26 01:27:25;;;;;;;;;;;;;;;-2.38;100.00;99927.97;5595092;31;33497;-81
2021/12/26 01:30:28;;;;;;;;;;;;;;;-2.46;100.00;99937.84;5596396;31;34093;-81
2021/12/26 01:33:31;;;;;;;;;;;;;;;-2.38;100.00;99931.44;5594830;31;33170;-81
2021/12/26 01:36:34;;;;;;;;;;;;;;;-2.43;100.00;99940.31;5595309;31;34430;-81
2021/12/26 01:39:37;;;;;;;;;;;;;;;-2.42;100.00;99944.59;5595436;31;33221;-81
2021/12/26 01:42:40;;;;;;;;;;;;;;;-2.33;100.00;99944.19;5597054;31;33997;-81
2021/12/26 01:45:46;;;;;;;;;;;;;;;-2.31;100.00;99941.50;5595462;31;34025;-81
2021/12/26 01:48:59;;;;;;;;;;;;;;;-2.32;100.00;99945.88;5594990;31;33318;-81
2021/12/26 01:52:03;;;;;;;;;;;;;;;-2.29;100.00;99940.53;5596526;31;34153;-81
2021/12/26 01:55:39;;;;;;;;;;;;;;;-2.27;100.00;99938.72;5595750;31;33810;-81
2021/12/26 01:58:30;;;;;;;;;;;;;;;-2.34;100.00;99937.31;5594321;31;33498;-81
2021/12/26 02:01:34;;;;;;;;;;;;;;;-2.15;100.00;99941.66;5595073;31;32276;-81
2021/12/26 02:04:38;;;;;;;;;;;;;;;-2.19;100.00;99936.59;5594725;31;34330;-81
2021/12/26 02:07:41;;;;;;;;;;;;;;;-2.23;100.00;99929.91;5595033;31;34610;-81
2021/12/26 02:10:46;;;;;;;;;;;;;;;-2.25;100.00;99934.31;5595948;31;33903;-81
2021/12/26 02:13:48;;;;;;;;;;;;;;;-2.22;100.00;99921.22;5594864;31;33591;-81
2021/12/26 02:16:51;;;;;;;;;;;;;;;-2.27;100.00;99927.50;5597292;31;32077;-81
2021/12/26 02:20:14;;;;;;;;;;;;;;;-2.05;100.00;99924.78;5597232;31;33883;-81
2021/12/26 02:23:24;;;;;;;;;;;;;;;-2.08;100.00;99933.53;5597189;31;33748;-81
2021/12/26 02:29:50;;;;;;;;;;;;;;;-2.07;100.00;99936.97;5596866;31;33247;-82
2021/12/26 02:32:59;;;;;;;;;;;;;;;-2.17;100.00;99923.59;5596895;31;34065;-82
2021/12/26 02:36:03;;;;;;;;;;;;;;;-2.06;100.00;99923.09;5598580;31;32831;-82
2021/12/26 02:39:06;;;;;;;;;;;;;;;-2.12;100.00;99926.81;5596667;31;33571;-82
2021/12/26 02:42:08;;;;;;;;;;;;;;;-1.99;100.00;99927.13;5597474;31;33400;-82
2021/12/26 02:45:11;;;;;;;;;;;;;;;-2.01;100.00;99936.69;5598476;31;33773;-82
2021/12/26 02:48:14;;;;;;;;;;;;;;;-1.98;100.00;99931.38;5598463;31;33361;-82
2021/12/26 02:51:17;;;;;;;;;;;;;;;-2.02;100.00;99945.38;5597763;31;33573;-83
2021/12/26 02:54:22;;;;;;;;;;;;;;;-2.07;100.00;99939.56;5596927;31;33351;-82
2021/12/26 02:57:25;;;;;;;;;;;;;;;-2.08;100.00;99941.31;5598111;31;33173;-82
2021/12/26 03:00:30;;;;;;;;;;;;;;;-2.00;100.00;99946.16;5598558;31;33716;-82
2021/12/26 03:03:32;;;;;;;;;;;;;;;-1.97;100.00;99956.37;5598995;31;34390;-83
2021/12/26 03:09:50;;;;;;;;;;;;;;;-2.04;100.00;99953.25;5596520;31;33735;-83
2021/12/26 03:12:57;;;;;;;;;;;;;;;-1.93;100.00;99941.53;5600272;31;33823;-83
2021/12/26 03:16:01;;;;;;;;;;;;;;;-1.95;100.00;99951.97;5600497;31;33747;-83
2021/12/26 03:19:09;;;;;;;;;;;;;;;-1.98;100.00;99938.31;5596358;31;34008;-83
2021/12/26 03:22:11;;;;;;;;;;;;;;;-2.06;100.00;99941.25;5598518;31;33436;-83
2021/12/26 03:25:19;;;;;;;;;;;;;;;-2.05;100.00;99937.75;5597265;31;33809;-83
2021/12/26 03:28:25;;;;;;;;;;;;;;;-2.04;100.00;99936.84;5598102;31;33656;-82
2021/12/26 03:31:28;;;;;;;;;;;;;;;-1.98;100.00;99938.31;5598681;31;34154;-82
2021/12/26 03:34:34;;;;;;;;;;;;;;;-1.99;100.00;99927.13;5597724;31;33927;-82
2021/12/26 03:37:40;;;;;;;;;;;;;;;-1.99;100.00;99932.28;5596402;31;34158;-82
2021/12/26 03:40:45;;;;;;;;;;;;;;;-1.87;100.00;99934.31;5596467;31;33805;-82
2021/12/26 03:43:52;;;;;;;;;;;;;;;-1.90;100.00;99936.19;5597310;31;34198;-83
2021/12/26 03:46:55;;;;;;;;;;;;;;;-1.92;100.00;99933.69;5597018;31;34315;-83
2021/12/26 03:49:58;;;;;;;;;;;;;;;-1.86;100.00;99943.75;5596272;31;33922;-83
2021/12/26 03:53:03;;;;;;;;;;;;;;;-1.87;100.00;99936.06;5597314;31;33548;-83
2021/12/26 03:56:06;;;;;;;;;;;;;;;-1.78;100.00;99934.81;5597939;31;33623;-83
2021/12/26 03:59:09;;;;;;;;;;;;;;;-1.91;100.00;99929.31;5596400;31;33824;-83
2021/12/26 04:02:13;;;;;;;;;;;;;;;-1.88;100.00;99934.38;5597138;31;33726;-83
2021/12/26 04:05:18;;;;;;;;;;;;;;;-1.80;100.00;99936.62;5598559;31;34028;-83
2021/12/26 04:08:21;;;;;;;;;;;;;;;-1.75;100.00;99934.66;5596342;31;33668;-83
2021/12/26 04:11:25;;;;;;;;;;;;;;;-1.88;95.52;99927.47;5595774;31;33805;-83
2021/12/26 04:14:30;;;;;;;;;;;;;;;-1.82;97.42;99928.06;5597350;31;33582;-83
2021/12/26 04:17:32;;;;;;;;;;;;;;;-1.92;100.00;99930.25;5595773;31;34257;-83
2021/12/26 04:20:35;;;;;;;;;;;;;;;-1.83;100.00;99932.44;5597259;31;33138;-83
2021/12/26 04:23:40;;;;;;;;;;;;;;;-1.82;100.00;99933.25;5597667;31;33290;-83
2021/12/26 04:26:45;;;;;;;;;;;;;;;-1.79;99.04;99928.75;5597349;31;33257;-82
2021/12/26 04:29:55;;;;;;;;;;;;;;;-1.72;94.67;99934.50;5597321;31;34021;-83
2021/12/26 04:32:59;;;;;;;;;;;;;;;-1.76;97.03;99935.59;5595595;31;34612;-82
2021/12/26 04:36:03;;;;;;;;;;;;;;;-1.73;92.25;99940.59;5594585;31;33689;-82
2021/12/26 04:39:07;;;;;;;;;;;;;;;-1.87;92.52;99942.09;5595554;31;33373;-82
2021/12/26 04:42:10;;;;;;;;;;;;;;;-1.77;93.70;99952.06;5595352;31;33989;-82
2021/12/26 04:45:15;;;;;;;;;;;;;;;-1.82;92.74;99951.41;5596280;31;33663;-82
2021/12/26 04:48:23;;;;;;;;;;;;;;;-1.79;89.94;99956.47;5597114;31;33596;-82
2021/12/26 04:51:28;;;;;;;;;;;;;;;-1.77;88.98;99967.62;5596160;31;33802;-82
2021/12/26 04:54:33;;;;;;;;;;;;;;;-1.86;88.65;99969.69;5597235;31;34550;-82
2021/12/26 04:57:35;;;;;;;;;;;;;;;-1.80;90.79;99967.75;5596796;31;33693;-82
2021/12/26 05:00:38;;;;;;;;;;;;;;;-1.71;87.41;99967.31;5595785;31;33503;-82
2021/12/26 05:03:41;;;;;;;;;;;;;;;-1.80;85.75;99967.75;5595373;31;33592;-82
2021/12/26 05:06:44;;;;;;;;;;;;;;;-1.75;86.60;99971.81;5595404;31;33785;-82
2021/12/26 05:09:46;;;;;;;;;;;;;;;-1.81;88.94;99966.06;5596043;31;33239;-82
2021/12/26 05:12:50;;;;;;;;;;;;;;;-1.83;87.84;99973.91;5594785;31;34162;-82
2021/12/26 05:15:53;;;;;;;;;;;;;;;-1.76;87.91;99974.50;5594996;31;33527;-82
2021/12/26 05:18:57;;;;;;;;;;;;;;;-1.66;83.68;99974.88;5594862;31;33713;-82
2021/12/26 05:22:00;;;;;;;;;;;;;;;-1.80;86.74;99980.72;5594948;31;33651;-82
2021/12/26 05:25:07;;;;;;;;;;;;;;;-1.84;81.73;99981.75;5595314;31;34285;-82
2021/12/26 05:28:09;;;;;;;;;;;;;;;-1.82;82.94;99983.38;5596282;31;34155;-82
2021/12/26 05:31:12;;;;;;;;;;;;;;;-1.75;82.28;99986.53;5594924;31;33685;-82
2021/12/26 05:34:15;;;;;;;;;;;;;;;-1.71;80.94;99994.13;5594876;31;34153;-82
2021/12/26 05:37:18;;;;;;;;;;;;;;;-1.66;79.61;99991.31;5597459;31;34061;-82
2021/12/26 05:40:24;;;;;;;;;;;;;;;-1.82;83.33;99985.13;5594404;31;33921;-82
2021/12/26 05:43:27;;;;;;;;;;;;;;;-1.78;82.06;99997.06;5595204;31;33563;-82
2021/12/26 05:46:31;;;;;;;;;;;;;;;-1.89;79.00;100002.72;5595082;31;34136;-83
2021/12/26 05:49:34;;;;;;;;;;;;;;;-1.81;78.28;100007.56;5599096;31;33965;-83
2021/12/26 05:52:38;;;;;;;;;;;;;;;-1.88;79.55;100002.66;5598378;31;34500;-83
2021/12/26 05:55:43;;;;;;;;;;;;;;;-1.84;82.26;100003.34;5598371;31;34222;-83
2021/12/26 05:58:46;;;;;;;;;;;;;;;-1.87;81.71;100001.75;5597055;31;33987;-83
2021/12/26 06:01:48;;;;;;;;;;;;;;;-1.87;81.50;100008.69;5597823;31;33783;-83
2021/12/26 06:04:51;;;;;;;;;;;;;;;-1.86;82.15;100011.19;5596550;31;33720;-82
2021/12/26 06:07:54;;;;;;;;;;;;;;;-1.77;78.78;100019.50;5597896;31;33218;-83
2021/12/26 06:10:57;;;;;;;;;;;;;;;-1.79;81.32;100023.91;5596312;31;33544;-82
2021/12/26 06:13:59;;;;;;;;;;;;;;;-1.82;80.46;100022.28;5597980;31;34081;-83
2021/12/26 06:17:02;;;;;;;;;;;;;;;-1.81;77.86;100025.72;5597803;31;34077;-83
2021/12/26 06:20:13;;;;;;;;;;;;;;;-1.78;79.50;100034.19;5596980;31;34933;-83
2021/12/26 06:23:16;;;;;;;;;;;;;;;-1.76;76.94;100042.75;5596869;31;33882;-82
2021/12/26 06:26:21;;;;;;;;;;;;;;;-1.75;78.56;100039.25;5598582;31;31606;-82
2021/12/26 06:29:24;;;;;;;;;;;;;;;-1.73;77.15;100037.44;5597521;31;33403;-82
2021/12/26 06:32:33;;;;;;;;;;;;;;;-1.58;77.42;100033.28;5596677;31;33263;-82
2021/12/26 06:35:38;;;;;;;;;;;;;;;-1.54;76.89;100046.12;5596889;31;33080;-82
2021/12/26 06:38:48;;;;;;;;;;;;;;;-1.52;74.81;100049.50;5598011;31;34110;-82
2021/12/26 06:42:06;;;;;;;;;;;;;;;-1.48;74.47;100045.84;5598067;31;32696;-83
2021/12/26 06:45:12;;;;;;;;;;;;;;;-1.57;72.77;100057.47;5598699;31;33180;-83
2021/12/26 06:48:15;;;;;;;;;;;;;;;-1.65;75.56;100059.56;5597794;31;33929;-83
2021/12/26 06:51:19;;;;;;;;;;;;;;;-1.56;71.61;100066.94;5596465;31;34982;-83
2021/12/26 06:54:24;;;;;;;;;;;;;;;-1.51;71.57;100069.31;5596608;31;34165;-84
2021/12/26 06:57:27;;;;;;;;;;;;;;;-1.46;71.97;100069.97;5597403;31;33320;-83
2021/12/26 07:00:33;;;;;;;;;;;;;;;-1.47;71.74;100070.87;5596488;31;33583;-83
2021/12/26 07:03:36;;;;;;;;;;;;;;;-1.40;72.77;100074.87;5597220;31;33681;-83
2021/12/26 07:06:39;;;;;;;;;;;;;;;-1.41;70.14;100078.41;5597255;31;34499;-83
2021/12/26 07:09:43;;;;;;;;;;;;;;;-1.41;69.57;100074.03;5597522;31;33235;-83
2021/12/26 07:12:46;;;;;;;;;;;;;;;-1.45;69.88;100076.84;5597462;31;34332;-83
2021/12/26 07:15:49;;;;;;;;;;;;;;;-1.56;70.03;100082.50;5597307;31;33485;-83
2021/12/26 07:18:55;;;;;;;;;;;;;;;-1.53;69.44;100081.56;5597965;31;33565;-83
2021/12/26 07:22:00;;;;;;;;;;;;;;;-1.57;70.94;100084.28;5596593;31;33876;-83
2021/12/26 07:25:04;;;;;;;;;;;;;;;-1.58;70.74;100080.00;5596795;31;33765;-83
2021/12/26 07:28:07;;;;;;;;;;;;;;;-1.51;70.68;100087.50;5597721;31;33439;-83
2021/12/26 07:31:11;;;;;;;;;;;;;;;-1.43;70.16;100080.22;5596577;31;32636;-83
2021/12/26 07:34:15;;;;;;;;;;;;;;;-1.45;69.12;100085.47;5596286;31;33790;-82
2021/12/26 07:37:19;;;;;;;;;;;;;;;-1.50;69.92;100089.19;5597238;31;33490;-84
2021/12/26 07:40:22;;;;;;;;;;;;;;;-1.35;68.84;100092.84;5596962;31;33754;-83
2021/12/26 07:43:25;;;;;;;;;;;;;;;-1.21;68.75;100089.62;5598247;31;33238;-83
2021/12/26 07:46:33;;;;;;;;;;;;;;;-1.22;68.91;100093.12;5596366;31;33591;-84
2021/12/26 07:49:36;;;;;;;;;;;;;;;-1.21;68.78;100092.22;5596938;31;33548;-83
2021/12/26 07:52:53;;;;;;;;;;;;;;;-1.27;68.78;100086.38;5597329;31;33766;-83
2021/12/26 07:56:14;;;;;;;;;;;;;;;-1.23;67.26;100101.81;5596639;31;32913;-83
2021/12/26 07:59:32;;;;;;;;;;;;;;;-1.05;67.47;100106.16;5598716;31;33431;-83
2021/12/26 08:02:49;;;;;;;;;;;;;;;-0.97;68.74;100106.66;5599435;31;33675;-83
2021/12/26 08:05:55;;;;;;;;;;;;;;;-1.16;67.57;100114.44;5597898;31;34211;-83
2021/12/26 08:08:58;;;;;;;;;;;;;;;-1.01;67.38;100114.63;5598240;31;33393;-83
2021/12/26 08:12:04;;;;;;;;;;;;;;;-1.00;68.57;100111.97;5596627;31;33690;-84
2021/12/26 08:15:09;;;;;;;;;;;;;;;-0.73;66.17;100121.97;5598014;31;33717;-83
2021/12/26 08:18:12;;;;;;;;;;;;;;;-0.62;64.15;100124.06;5596738;31;33535;-84
2021/12/26 08:21:16;;;;;;;;;;;;;;;-0.48;66.93;100113.84;5596319;31;33628;-83
2021/12/26 08:24:19;;;;;;;;;;;;;;;-0.45;64.08;100105.03;5599359;31;34352;-83
2021/12/26 08:27:23;;;;;;;;;;;;;;;-0.38;64.01;100100.38;5599057;31;33678;-83
2021/12/26 08:30:30;;;;;;;;;;;;;;;-0.42;61.09;100107.50;5596499;31;33887;-83
2021/12/26 08:33:32;;;;;;;;;;;;;;;-0.62;63.91;100116.25;5595356;31;33652;-83
2021/12/26 08:36:35;;;;;;;;;;;;;;;-0.52;63.26;100116.66;5596805;31;34422;-83
2021/12/26 08:39:39;;;;;;;;;;;;;;;-0.53;60.37;100112.38;5596279;31;34489;-83
2021/12/26 08:42:43;;;;;;;;;;;;;;;-0.48;60.54;100107.78;5595866;31;33507;-83
2021/12/26 08:45:46;;;;;;;;;;;;;;;-0.65;61.01;100108.59;5595324;31;33344;-83
2021/12/26 08:48:51;;;;;;;;;;;;;;;-0.57;61.99;100121.22;5595905;31;33211;-83
2021/12/26 08:51:54;;;;;;;;;;;;;;;-0.57;60.61;100126.44;5595994;31;33382;-83
2021/12/26 08:55:00;;;;;;;;;;;;;;;-0.44;60.00;100127.53;5596048;31;33877;-83
2021/12/26 08:58:05;;;;;;;;;;;;;;;-0.30;61.40;100123.41;5595896;31;33656;-83
2021/12/26 09:01:08;;;;;;;;;;;;;;;-0.27;59.62;100123.22;5595348;31;33565;-83
2021/12/26 09:04:11;;;;;;;;;;;;;;;-0.20;59.08;100129.84;5595464;31;33708;-83
2021/12/26 09:07:14;;;;;;;;;;;;;;;-0.27;58.77;100138.84;5596595;31;34312;-83
2021/12/26 09:10:22;;;;;;;;;;;;;;;-0.60;61.83;100122.22;5596283;31;33206;-83
2021/12/26 09:13:28;;;;;;;;;;;;;;;-0.80;59.50;100117.97;5597811;31;33845;-82
2021/12/26 09:16:33;;;;;;;;;;;;;;;-0.79;59.04;100111.87;5595928;31;34247;-83
2021/12/26 09:19:36;;;;;;;;;;;;;;;-0.87;60.88;100109.62;5595328;31;33903;-83
2021/12/26 09:22:40;;;;;;;;;;;;;;;-1.08;59.81;100101.13;5597027;31;31959;-83
2021/12/26 09:25:43;;;;;;;;;;;;;;;-1.02;59.51;100106.00;5597651;31;33424;-84
2021/12/26 09:28:46;;;;;;;;;;;;;;;-0.96;57.92;100092.72;5596105;31;33800;-84
2021/12/26 09:31:50;;;;;;;;;;;;;;;-1.05;59.87;100092.34;5596229;31;35936;-83
2021/12/26 09:34:54;;;;;;;;;;;;;;;-0.84;57.99;100093.06;5596071;31;33506;-83
2021/12/26 09:37:56;;;;;;;;;;;;;;;-0.94;57.32;100090.91;5596863;31;33894;-83
2021/12/26 09:40:59;;;;;;;;;;;;;;;-0.84;58.60;100093.06;5595964;31;34107;-83
2021/12/26 09:44:03;;;;;;;;;;;;;;;-0.73;59.96;100085.59;5600310;31;33481;-83
2021/12/26 09:47:05;;;;;;;;;;;;;;;-0.60;59.03;100087.59;5596885;31;33317;-83
2021/12/26 09:50:09;;;;;;;;;;;;;;;-0.29;56.31;100088.69;5595791;31;33824;-83
2021/12/26 09:53:14;;;;;;;;;;;;;;;-0.11;56.53;100086.94;5595591;31;34240;-83
2021/12/26 09:56:19;;;;;;;;;;;;;;;0.13;55.77;100084.81;5595811;31;33499;-83
2021/12/26 09:59:23;;;;;;;;;;;;;;;0.23;54.98;100086.03;5595298;31;34106;-83
2021/12/26 10:02:30;;;;;;;;;;;;;;;0.35;53.66;100089.72;5595867;31;34412;-83
2021/12/26 10:05:53;;;;;;;;;;;;;;;0.29;55.42;100082.25;5596811;31;33301;-82
2021/12/26 10:09:01;;;;;;;;;;;;;;;0.29;53.01;100085.69;5594358;31;33395;-82
2021/12/26 10:12:04;;;;;;;;;;;;;;;0.33;55.27;100080.31;5594938;31;33912;-83
2021/12/26 10:15:08;;;;;;;;;;;;;;;0.08;54.48;100084.19;5594430;31;33890;-83
2021/12/26 10:18:27;;;;;;;;;;;;;;;0.18;50.56;100075.00;5595011;31;33892;-83
2021/12/26 10:21:29;;;;;;;;;;;;;;;0.14;52.50;100068.28;5595634;31;33301;-83
2021/12/26 10:24:33;;;;;;;;;;;;;;;0.21;50.89;100071.41;5595217;31;33813;-83
2021/12/26 10:27:41;;;;;;;;;;;;;;;0.01;54.49;100064.63;5594659;31;34016;-83
2021/12/26 10:30:44;;;;;;;;;;;;;;;0.04;52.56;100065.31;5594247;31;33120;-83
2021/12/26 10:33:47;;;;;;;;;;;;;;;0.29;51.54;100074.44;5594174;31;33337;-83
2021/12/26 10:36:52;;;;;;;;;;;;;;;0.36;51.70;100069.75;5597442;31;33390;-83
2021/12/26 10:39:57;;;;;;;;;;;;;;;0.39;52.84;100064.41;5599225;31;34722;-84
2021/12/26 10:43:02;;;;;;;;;;;;;;;0.46;49.35;100070.94;5597957;31;33994;-83
2021/12/26 10:46:15;;;;;;;;;;;;;;;0.26;49.68;100062.44;5598312;31;33534;-83
2021/12/26 10:49:21;;;;;;;;;;;;;;;0.32;49.95;100060.44;5598220;31;33129;-83
2021/12/26 10:52:28;;;;;;;;;;;;;;;0.28;50.98;100057.97;5599373;31;33592;-83
2021/12/26 10:55:36;;;;;;;;;;;;;;;0.40;50.39;100066.06;5599962;31;33649;-83
2021/12/26 10:58:48;;;;;;;;;;;;;;;0.26;48.61;100065.06;5599763;31;33515;-83
2021/12/26 11:01:54;;;;;;;;;;;;;;;0.22;48.03;100063.53;5599748;31;33936;-83
2021/12/26 11:05:03;;;;;;;;;;;;;;;0.20;50.30;100060.16;5602763;31;33641;-84
2021/12/26 11:08:12;;;;;;;;;;;;;;;0.04;49.35;100059.28;5599548;31;33893;-83
2021/12/26 11:11:20;;;;;;;;;;;;;;;-0.02;49.90;100060.44;5597811;31;33677;-83
2021/12/26 11:14:24;;;;;;;;;;;;;;;-0.08;50.25;100056.41;5598221;31;34232;-83
2021/12/26 11:17:31;;;;;;;;;;;;;;;-0.18;49.98;100055.19;5598085;31;34679;-83
2021/12/26 11:20:36;;;;;;;;;;;;;;;-0.15;49.24;100049.81;5598596;31;33233;-83
2021/12/26 11:23:43;;;;;;;;;;;;;;;-0.26;50.75;100052.97;5600014;31;34379;-84
2021/12/26 11:26:48;;;;;;;;;;;;;;;-0.22;50.14;100051.06;5598153;31;33926;-83
2021/12/26 11:29:56;;;;;;;;;;;;;;;-0.26;49.26;100046.91;5599232;31;34274;-83
2021/12/26 11:32:59;;;;;;;;;;;;;;;-0.17;48.48;100046.47;5599273;31;33565;-84
2021/12/26 11:36:04;;;;;;;;;;;;;;;-0.11;49.10;100046.16;5598640;31;33719;-83
2021/12/26 11:39:07;;;;;;;;;;;;;;;-0.10;50.99;100045.22;5599706;31;33964;-83
2021/12/26 11:42:37;;;;;;;;;;;;;;;0.05;50.02;100046.19;5599233;31;33786;-84
2021/12/26 11:46:01;;;;;;;;;;;;;;;-0.02;49.50;100035.25;5600376;31;33691;-83
2021/12/26 11:49:38;;;;;;;;;;;;;;;0.17;49.97;100052.50;5601729;31;33510;-83
2021/12/26 11:53:01;;;;;;;;;;;;;;;0.39;48.35;100039.19;5604819;31;34667;-83
2021/12/26 11:56:17;;;;;;;;;;;;;;;0.41;49.10;100044.31;5603728;31;36102;-83
2021/12/26 11:59:30;;;;;;;;;;;;;;;0.45;47.47;100064.06;5605311;31;34669;-82
2021/12/26 12:02:33;;;;;;;;;;;;;;;0.50;48.00;100067.28;5602883;31;36127;-84
2021/12/26 12:05:37;;;;;;;;;;;;;;;0.50;47.79;100063.81;5602840;31;34779;-83
2021/12/26 12:08:40;;;;;;;;;;;;;;;0.66;46.39;100069.88;5602202;31;33606;-83
2021/12/26 12:12:15;;;;;;;;;;;;;;;0.69;46.35;100063.66;5603449;31;34763;-83
2021/12/26 12:15:39;;;;;;;;;;;;;;;0.78;45.89;100055.34;5567279;31;33903;-82
2021/12/26 12:18:45;;;;;;;;;;;;;;;0.97;47.22;100064.72;5598490;31;33325;-82
2021/12/26 12:21:51;;;;;;;;;;;;;;;0.96;44.55;100063.06;5601423;31;33735;-83
2021/12/26 12:25:21;;;;;;;;;;;;;;;1.01;44.13;100071.47;5601220;31;33428;-83
2021/12/26 12:28:40;;;;;;;;;;;;;;;1.11;44.96;100077.84;5599061;31;34567;-83
2021/12/26 12:31:43;;;;;;;;;;;;;;;1.04;43.75;100066.09;5596570;31;33567;-83
2021/12/26 12:34:49;;;;;;;;;;;;;;;0.97;44.39;100069.94;5597408;31;34085;-83
2021/12/26 12:37:52;;;;;;;;;;;;;;;1.06;43.92;100069.44;5597055;31;33730;-83
2021/12/26 12:40:58;;;;;;;;;;;;;;;0.99;43.99;100058.53;5598757;31;33650;-82
2021/12/26 12:44:10;;;;;;;;;;;;;;;1.03;43.98;100054.81;5597966;31;33813;-82
2021/12/26 12:47:24;;;;;;;;;;;;;;;0.97;45.25;100054.31;5596631;31;33004;-82
2021/12/26 12:50:32;;;;;;;;;;;;;;;1.05;46.38;100054.75;5601781;31;33658;-82
2021/12/26 12:53:41;;;;;;;;;;;;;;;1.03;43.71;100051.38;5597210;31;33617;-82
2021/12/26 12:56:44;;;;;;;;;;;;;;;0.98;44.91;100051.63;5598380;31;34060;-82
2021/12/26 12:59:49;;;;;;;;;;;;;;;0.96;43.77;100042.25;5596552;31;33639;-82
2021/12/26 13:03:14;;;;;;;;;;;;;;;0.95;44.26;100040.56;5596902;31;33309;-82
2021/12/26 13:06:19;;;;;;;;;;;;;;;1.09;42.62;100032.78;5581831;31;33162;-83
2021/12/26 13:09:23;;;;;;;;;;;;;;;0.97;42.58;100038.69;5595887;31;33763;-82
2021/12/26 13:12:25;;;;;;;;;;;;;;;0.75;44.17;100026.84;5596337;31;33183;-82
2021/12/26 13:15:28;;;;;;;;;;;;;;;0.96;42.78;100021.41;5596233;31;33811;-83
2021/12/26 13:18:32;;;;;;;;;;;;;;;0.95;42.38;100011.91;5597067;31;33733;-83
2021/12/26 13:21:36;;;;;;;;;;;;;;;0.96;42.87;100014.41;5596259;31;34517;-82
2021/12/26 13:24:47;;;;;;;;;;;;;;;0.98;42.24;100009.09;5596213;31;34259;-82
2021/12/26 13:27:50;;;;;;;;;;;;;;;0.80;43.37;100008.38;5596130;31;33616;-83
2021/12/26 13:30:58;;;;;;;;;;;;;;;0.73;43.34;100013.09;5596405;31;33708;-82
2021/12/26 13:34:13;;;;;;;;;;;;;;;0.74;42.90;100010.41;5596030;31;33559;-82
2021/12/26 13:37:19;;;;;;;;;;;;;;;0.81;42.50;100013.50;5596319;31;34245;-82
2021/12/26 13:40:23;;;;;;;;;;;;;;;0.68;42.76;100007.31;5595948;31;34821;-82
2021/12/26 13:43:29;;;;;;;;;;;;;;;0.65;42.39;100023.94;5600349;31;34204;-82
2021/12/26 13:46:35;;;;;;;;;;;;;;;0.54;42.87;100008.91;5596813;31;33611;-82
2021/12/26 13:49:38;;;;;;;;;;;;;;;0.52;42.79;100015.12;5595203;31;33768;-82
2021/12/26 13:52:41;;;;;;;;;;;;;;;0.53;43.71;100015.03;5595746;31;34748;-82
2021/12/26 13:55:44;;;;;;;;;;;;;;;0.49;43.46;100013.53;5595491;31;33365;-82
2021/12/26 13:58:47;;;;;;;;;;;;;;;0.34;43.78;100019.56;5596522;31;33144;-82
2021/12/26 14:01:50;;;;;;;;;;;;;;;0.32;43.40;100022.25;5596246;31;33672;-82
2021/12/26 14:04:57;;;;;;;;;;;;;;;0.29;43.07;100022.41;5595985;31;33527;-82
2021/12/26 14:08:01;;;;;;;;;;;;;;;0.23;43.53;100027.91;5595590;31;34246;-82
2021/12/26 14:11:05;;;;;;;;;;;;;;;0.08;44.11;100029.56;5596924;31;33344;-82
2021/12/26 14:14:08;;;;;;;;;;;;;;;-0.09;44.96;100030.47;5598189;31;33554;-82
2021/12/26 14:17:11;;;;;;;;;;;;;;;0.02;46.06;100035.12;5597003;31;33538;-82
2021/12/26 14:20:13;;;;;;;;;;;;;;;0.06;46.21;100036.63;5598892;31;33761;-82
2021/12/26 14:23:21;;;;;;;;;;;;;;;-0.13;47.33;100045.38;5598290;31;33648;-83
2021/12/26 14:26:30;;;;;;;;;;;;;;;-0.32;49.76;100045.47;5597097;31;33770;-82
2021/12/26 14:29:33;;;;;;;;;;;;;;;-0.35;48.61;100038.69;5597537;31;33232;-82
2021/12/26 14:32:36;;;;;;;;;;;;;;;-0.42;48.30;100045.13;5598757;31;33885;-82
2021/12/26 14:35:39;;;;;;;;;;;;;;;-0.38;48.47;100049.22;5597978;31;33965;-82
2021/12/26 14:38:56;;;;;;;;;;;;;;;-0.55;49.63;100049.25;5598625;31;34054;-82
2021/12/26 14:42:13;;;;;;;;;;;;;;;-0.57;48.74;100043.28;5600262;31;33636;-82
2021/12/26 14:45:15;;;;;;;;;;;;;;;-0.48;48.86;100042.81;5599565;31;34065;-82
2021/12/26 14:48:24;;;;;;;;;;;;;;;-0.71;49.52;100052.59;5597933;31;34567;-82
2021/12/26 14:51:27;;;;;;;;;;;;;;;-0.59;49.25;100060.69;5598740;31;33866;-82
2021/12/26 14:54:40;;;;;;;;;;;;;;;-0.75;49.18;100058.88;5598124;31;33833;-82
2021/12/26 14:57:43;;;;;;;;;;;;;;;-0.89;49.96;100061.28;5598379;31;33890;-82
2021/12/26 15:00:46;;;;;;;;;;;;;;;-0.82;48.37;100075.66;5598063;31;33190;-82
2021/12/26 15:04:12;;;;;;;;;;;;;;;-0.73;48.54;100079.56;5597989;31;33362;-82
2021/12/26 15:07:22;;;;;;;;;;;;;;;-0.71;48.78;100088.97;5597562;31;33420;-85
2021/12/26 15:10:31;;;;;;;;;;;;;;;-0.71;48.64;100095.94;5597467;31;33865;-83
2021/12/26 15:13:40;;;;;;;;;;;;;;;-0.71;48.77;100094.16;5567533;32;33791;-82
2021/12/26 15:16:45;;;;;;;;;;;;;;;-1.03;50.11;100099.13;5579924;32;32591;-82
2021/12/26 15:19:48;;;;;;;;;;;;;;;-1.29;51.45;100097.75;5577912;32;33345;-82
2021/12/26 15:22:56;;;;;;;;;;;;;;;-1.48;51.93;100095.16;5577821;32;33561;-83
2021/12/26 15:26:04;;;;;;;;;;;;;;;-1.53;51.54;100094.53;5578006;32;33575;-83
2021/12/26 15:29:07;;;;;;;;;;;;;;;-1.67;53.04;100098.56;5577723;32;33671;-84
2021/12/26 15:32:15;;;;;;;;;;;;;;;-1.74;52.38;100110.09;5577727;32;33490;-83
2021/12/26 15:35:18;;;;;;;;;;;;;;;-1.86;54.19;100109.72;5579886;32;34133;-83
2021/12/26 15:38:20;;;;;;;;;;;;;;;-1.95;57.16;100115.31;5577563;32;34220;-82
2021/12/26 15:41:25;;;;;;;;;;;;;;;-2.07;55.16;100110.66;5578372;32;33731;-85
2021/12/26 15:44:28;;;;;;;;;;;;;;;-2.12;55.87;100122.97;5578221;32;34263;-82
2021/12/26 15:47:34;;;;;;;;;;;;;;;-2.17;58.40;100121.41;5578250;32;32970;-83
2021/12/26 15:50:36;;;;;;;;;;;;;;;-2.19;58.38;100128.41;5577483;32;33705;-83
2021/12/26 15:53:39;;;;;;;;;;;;;;;-2.22;59.89;100128.56;5577639;31;34227;-83
2021/12/26 15:56:42;;;;;;;;;;;;;;;-2.28;60.02;100123.62;5577274;32;33652;-83
2021/12/26 15:59:45;;;;;;;;;;;;;;;-2.08;58.62;100124.53;5578263;32;33445;-82
2021/12/26 16:02:48;;;;;;;;;;;;;;;-2.04;54.73;100128.69;5574934;32;33200;-82
2021/12/26 16:05:52;;;;;;;;;;;;;;;-2.12;56.71;100129.00;5573422;32;33791;-82